createdAt,value
2018-08-09T00:01:43.628Z,5.03
2018-08-09T00:06:46.735Z,4.23
2018-08-09T00:11:49.822Z,4.50
2018-08-09T00:16:52.927Z,5.10
2018-08-09T00:21:56.030Z,3.50
2018-08-09T00:26:59.151Z,3.83
2018-08-09T00:32:02.252Z,4.07
2018-08-09T00:37:05.544Z,4.10
2018-08-09T00:42:08.661Z,4.70
2018-08-09T00:47:11.840Z,3.70
2018-08-09T00:52:14.954Z,4.30
2018-08-09T00:57:18.043Z,4.10
2018-08-09T01:02:21.283Z,4.23
2018-08-09T01:07:24.463Z,4.23
2018-08-09T01:12:27.588Z,3.97
2018-08-09T01:17:30.726Z,4.47
2018-08-09T01:22:33.816Z,4.60
2018-08-09T01:27:36.923Z,4.30
2018-08-09T01:32:40.029Z,4.87
2018-08-09T01:37:43.131Z,4.27
2018-08-09T01:42:57.843Z,4.17
2018-08-09T01:48:00.943Z,4.87
2018-08-09T01:53:04.039Z,5.30
2018-08-09T01:58:07.135Z,3.97
2018-08-09T02:03:10.252Z,4.60
2018-08-09T02:08:13.346Z,3.77
2018-08-09T02:13:16.459Z,4.00
2018-08-09T02:18:19.495Z,4.40
2018-08-09T02:23:22.611Z,4.70
2018-08-09T02:28:25.703Z,4.20
2018-08-09T02:33:28.796Z,4.87
2018-08-09T02:38:31.903Z,4.33
2018-08-09T02:43:35.006Z,4.90
2018-08-09T02:48:38.117Z,5.00
2018-08-09T02:53:41.272Z,4.23
2018-08-09T02:58:44.362Z,4.37
2018-08-09T03:03:47.456Z,3.97
2018-08-09T03:08:50.551Z,4.30
2018-08-09T03:13:53.666Z,4.60
2018-08-09T03:18:56.763Z,4.30
2018-08-09T03:23:59.851Z,4.60
2018-08-09T03:29:03.039Z,5.00
2018-08-09T03:34:06.217Z,4.50
2018-08-09T03:39:10.811Z,4.60
2018-08-09T03:44:13.963Z,5.50
2018-08-09T03:49:17.068Z,5.30
2018-08-09T03:54:20.180Z,5.50
2018-08-09T03:59:23.264Z,5.73
2018-08-09T04:04:26.387Z,5.53
2018-08-09T04:09:29.471Z,5.47
2018-08-09T04:14:32.607Z,4.87
2018-08-09T04:19:35.707Z,5.50
2018-08-09T04:24:38.812Z,5.20
2018-08-09T04:29:41.938Z,5.10
2018-08-09T04:34:45.044Z,4.00
2018-08-09T04:39:48.137Z,5.10
2018-08-09T04:44:51.247Z,4.77
2018-08-09T04:49:54.350Z,5.00
2018-08-09T04:54:57.435Z,5.37
2018-08-09T05:00:00.532Z,5.07
2018-08-09T05:05:03.667Z,4.20
2018-08-09T05:10:10.770Z,6.00
2018-08-09T05:15:14.078Z,5.27
2018-08-09T05:20:17.159Z,4.00
2018-08-09T05:25:20.327Z,5.23
2018-08-09T05:30:23.427Z,4.37
2018-08-09T05:35:26.679Z,5.03
2018-08-09T05:40:29.792Z,3.77
2018-08-09T05:45:32.911Z,4.90
2018-08-09T05:50:36.032Z,4.90
2018-08-09T05:55:39.149Z,4.30
2018-08-09T06:00:42.252Z,4.70
2018-08-09T06:05:45.424Z,3.67
2018-08-09T06:10:49.083Z,4.13
2018-08-09T06:15:52.163Z,3.87
2018-08-09T06:20:55.351Z,3.23
2018-08-09T06:25:58.485Z,3.70
2018-08-09T06:31:01.581Z,3.70
2018-08-09T06:36:04.719Z,3.10
2018-08-09T06:41:07.839Z,3.50
2018-08-09T06:46:10.939Z,3.20
2018-08-09T06:51:14.050Z,2.57
2018-08-09T06:56:17.216Z,3.27
2018-08-09T07:01:20.283Z,3.00
2018-08-09T07:06:23.475Z,2.80
2018-08-09T07:11:26.574Z,3.67
2018-08-09T07:16:29.687Z,3.60
2018-08-09T07:21:32.786Z,4.30
2018-08-09T07:26:35.919Z,3.83
2018-08-09T07:31:39.015Z,3.63
2018-08-09T07:36:42.188Z,3.80
2018-08-09T07:41:45.331Z,4.50
2018-08-09T07:46:48.427Z,4.50
2018-08-09T07:51:51.564Z,3.50
2018-08-09T07:56:54.672Z,3.80
2018-08-09T08:01:57.751Z,4.57
2018-08-09T08:07:00.859Z,4.77
2018-08-09T08:12:03.951Z,4.37
2018-08-09T08:17:07.055Z,4.20
2018-08-09T08:22:10.156Z,4.70
2018-08-09T08:27:13.284Z,5.40
2018-08-09T08:32:16.504Z,3.87
2018-08-09T08:37:19.603Z,5.60
2018-08-09T08:42:22.707Z,6.50
2018-08-09T08:47:25.837Z,5.33
2018-08-09T08:52:29.031Z,5.33
2018-08-09T08:57:32.144Z,5.50
2018-08-09T09:02:35.580Z,5.57
2018-08-09T09:07:39.108Z,5.70
2018-08-09T09:12:42.286Z,4.60
2018-08-09T09:17:45.393Z,5.50
2018-08-09T09:22:55.121Z,5.47
2018-08-09T09:27:58.233Z,6.07
2018-08-09T09:33:01.339Z,5.90
2018-08-09T09:38:04.644Z,5.00
2018-08-09T09:43:07.783Z,4.40
2018-08-09T09:48:10.913Z,4.50
2018-08-09T09:53:14.001Z,6.20
2018-08-09T09:58:17.196Z,5.20
2018-08-09T10:03:20.421Z,5.30
2018-08-09T10:08:23.511Z,5.07
2018-08-09T10:13:27.739Z,4.73
2018-08-09T10:18:30.879Z,4.77
2018-08-09T10:23:34.086Z,4.50
2018-08-09T10:28:37.203Z,5.30
2018-08-09T10:33:40.386Z,5.60
2018-08-09T10:38:43.587Z,5.00
2018-08-09T10:43:47.624Z,5.73
2018-08-09T10:48:50.712Z,6.40
2018-08-09T10:53:54.080Z,4.93
2018-08-09T10:58:57.202Z,4.70
2018-08-09T11:04:00.288Z,4.93
2018-08-09T11:09:05.756Z,5.40
2018-08-09T11:14:08.840Z,4.80
2018-08-09T11:19:11.911Z,5.90
2018-08-09T11:24:15.020Z,6.27
2018-08-09T11:29:18.118Z,6.90
2018-08-09T11:34:21.239Z,6.03
2018-08-09T11:39:24.343Z,6.27
2018-08-09T11:44:27.463Z,5.70
2018-08-09T11:49:30.573Z,5.53
2018-08-09T11:54:33.699Z,5.90
2018-08-09T11:59:36.799Z,5.83
2018-08-09T12:04:40.114Z,6.33
2018-08-09T12:09:43.293Z,6.60
2018-08-09T12:14:46.399Z,5.50
2018-08-09T12:19:49.521Z,5.40
2018-08-09T12:24:52.645Z,6.30
2018-08-09T12:29:55.771Z,5.27
2018-08-09T12:34:58.860Z,6.87
2018-08-09T12:40:02.032Z,4.90
2018-08-09T12:45:06.155Z,5.40
2018-08-09T12:50:12.512Z,7.10
2018-08-09T12:55:15.598Z,6.40
2018-08-09T13:00:18.716Z,6.00
2018-08-09T13:05:21.824Z,5.83
2018-08-09T13:10:24.962Z,6.67
2018-08-09T13:15:28.082Z,6.27
2018-08-09T13:20:31.181Z,6.70
2018-08-09T13:25:34.287Z,5.73
2018-08-09T13:30:37.836Z,5.10
2018-08-09T13:35:42.116Z,5.97
2018-08-09T13:40:45.211Z,6.17
2018-08-09T13:45:48.338Z,6.47
2018-08-09T13:50:51.452Z,6.07
2018-08-09T13:55:54.592Z,6.33
2018-08-09T14:00:57.820Z,6.50
2018-08-09T14:06:00.923Z,6.87
2018-08-09T14:11:04.035Z,6.07
2018-08-09T14:16:07.638Z,6.10
2018-08-09T14:21:10.668Z,6.37
2018-08-09T14:26:13.785Z,5.90
2018-08-09T14:31:16.879Z,5.63
2018-08-09T14:36:20.035Z,6.40
2018-08-09T14:41:23.107Z,6.30
2018-08-09T14:46:26.208Z,5.70
2018-08-09T14:51:29.307Z,6.30
2018-08-09T14:56:32.420Z,5.37
2018-08-09T15:01:35.598Z,5.93
2018-08-09T15:06:38.721Z,5.67
2018-08-09T15:11:42.039Z,6.23
2018-08-09T15:16:45.132Z,6.27
2018-08-09T15:21:48.231Z,6.03
2018-08-09T15:26:51.348Z,6.00
2018-08-09T15:31:54.465Z,6.00
2018-08-09T15:36:57.560Z,5.93
2018-08-09T15:42:00.696Z,6.40
2018-08-09T15:47:03.850Z,6.87
2018-08-09T15:52:06.965Z,5.47
2018-08-09T15:57:10.097Z,5.80
2018-08-09T16:02:13.290Z,6.33
2018-08-09T16:07:16.496Z,5.47
2018-08-09T16:12:19.708Z,6.30
2018-08-09T16:17:22.927Z,5.73
2018-08-09T16:22:26.033Z,5.40
2018-08-09T16:27:29.156Z,6.13
2018-08-09T16:32:32.316Z,6.60
2018-08-09T16:37:35.448Z,6.70
2018-08-09T16:42:38.543Z,6.30
2018-08-09T16:47:41.704Z,6.13
2018-08-09T16:52:45.275Z,7.07
2018-08-09T16:57:48.512Z,6.37
2018-08-09T17:02:52.695Z,6.63
2018-08-09T17:07:55.859Z,7.60
2018-08-09T17:12:58.955Z,5.47
2018-08-09T17:18:02.079Z,5.90
2018-08-09T17:23:05.213Z,5.60
2018-08-09T17:28:08.332Z,5.10
2018-08-09T17:33:11.444Z,4.33
2018-08-09T17:38:14.580Z,4.87
2018-08-09T17:43:17.771Z,4.33
2018-08-09T17:48:20.895Z,4.90
2018-08-09T17:53:24.079Z,3.80
2018-08-09T17:58:27.218Z,4.20
2018-08-09T18:03:30.340Z,4.60
2018-08-09T18:08:39.862Z,4.70
2018-08-09T18:13:43.003Z,2.83
2018-08-09T18:18:46.174Z,3.93
2018-08-09T18:23:49.420Z,4.20
2018-08-09T18:28:52.547Z,4.40
2018-08-09T18:33:55.656Z,4.20
2018-08-09T18:38:58.836Z,4.77
2018-08-09T18:44:01.952Z,4.80
2018-08-09T18:54:14.532Z,4.90
2018-08-09T18:59:17.692Z,4.77
2018-08-09T19:04:20.756Z,4.47
2018-08-09T19:09:23.876Z,5.37
2018-08-09T19:14:27.048Z,5.63
2018-08-09T19:19:30.150Z,6.20
2018-08-09T19:24:33.280Z,4.80
2018-08-09T19:29:36.395Z,5.27
2018-08-09T19:34:39.504Z,5.00
2018-08-09T19:39:42.635Z,5.73
2018-08-09T19:44:45.740Z,5.27
2018-08-09T19:49:48.849Z,5.90
2018-08-09T19:54:51.934Z,6.30
2018-08-09T19:59:55.085Z,6.03
2018-08-09T20:04:58.261Z,6.47
2018-08-09T20:10:01.388Z,5.00
2018-08-09T20:15:07.245Z,5.67
2018-08-09T20:20:11.812Z,7.17
2018-08-09T20:25:15.363Z,6.17
2018-08-09T20:30:19.089Z,6.13
2018-08-09T20:35:23.216Z,6.67
2018-08-09T20:40:26.315Z,6.60
2018-08-09T20:45:29.629Z,6.20
2018-08-09T20:50:32.741Z,5.10
2018-08-09T20:55:35.957Z,6.90
2018-08-09T21:00:39.120Z,5.70
2018-08-09T21:05:42.310Z,5.50
2018-08-09T21:10:45.416Z,5.27
2018-08-09T21:15:48.509Z,5.57
2018-08-09T21:20:51.614Z,6.37
2018-08-09T21:25:54.723Z,5.50
2018-08-09T21:30:57.841Z,5.53
2018-08-09T21:36:00.952Z,6.20
2018-08-09T21:41:04.028Z,5.87
2018-08-09T21:46:07.136Z,6.73
2018-08-09T21:51:10.236Z,5.97
2018-08-09T21:56:13.338Z,6.97
2018-08-09T22:01:16.433Z,5.30
2018-08-09T22:06:24.948Z,5.97
2018-08-09T22:11:33.410Z,5.20
2018-08-09T22:16:41.892Z,4.93
2018-08-09T22:21:50.480Z,4.37
2018-08-09T22:26:53.648Z,4.50
2018-08-09T22:31:56.884Z,4.53
2018-08-09T22:36:59.980Z,4.90
2018-08-09T22:42:34.368Z,4.57
2018-08-09T22:47:37.488Z,4.13
2018-08-09T22:52:40.595Z,4.30
2018-08-09T22:57:43.713Z,3.80
2018-08-09T23:02:46.843Z,3.50
2018-08-09T23:07:50.601Z,4.40
2018-08-09T23:12:54.367Z,3.37
2018-08-09T23:17:57.629Z,3.07
2018-08-09T23:23:00.752Z,3.00
2018-08-09T23:28:03.884Z,3.00
2018-08-09T23:33:06.972Z,3.30
2018-08-09T23:38:10.070Z,3.00
2018-08-09T23:43:13.559Z,3.03
2018-08-09T23:48:16.660Z,3.00
2018-08-09T23:53:19.793Z,3.20
2018-08-09T23:58:23.027Z,2.70
